createdAt,value
2018-07-30T00:03:06.137Z,39.10
2018-07-30T00:08:09.547Z,39.30
2018-07-30T00:13:12.888Z,39.50
2018-07-30T00:18:16.304Z,39.50
2018-07-30T00:23:19.677Z,39.70
2018-07-30T00:28:23.020Z,39.70
2018-07-30T00:33:26.381Z,39.70
2018-07-30T00:38:29.842Z,39.90
2018-07-30T00:43:33.228Z,40.10
2018-07-30T00:48:36.591Z,40.10
2018-07-30T00:53:39.957Z,40.20
2018-07-30T00:58:43.347Z,40.30
2018-07-30T01:03:46.699Z,40.40
2018-07-30T01:08:50.056Z,40.70
2018-07-30T01:13:53.413Z,40.50
2018-07-30T01:18:56.988Z,40.70
2018-07-30T01:24:00.362Z,40.70
2018-07-30T01:29:03.748Z,40.90
2018-07-30T01:39:10.414Z,41.30
2018-07-30T01:44:13.784Z,41.20
2018-07-30T01:49:17.203Z,41.00
2018-07-30T01:54:20.574Z,41.30
2018-07-30T01:59:23.956Z,41.50
2018-07-30T02:04:27.327Z,41.70
2018-07-30T02:09:30.747Z,41.90
2018-07-30T02:14:34.118Z,42.00
2018-07-30T02:19:37.488Z,42.20
2018-07-30T02:24:40.868Z,42.20
2018-07-30T02:29:44.232Z,42.50
2018-07-30T02:34:47.593Z,42.40
2018-07-30T02:39:50.965Z,42.70
2018-07-30T02:44:54.361Z,42.70
2018-07-30T02:49:57.751Z,42.80
2018-07-30T02:55:01.133Z,42.70
2018-07-30T03:00:05.416Z,42.90
2018-07-30T03:05:08.798Z,42.80
2018-07-30T03:10:12.214Z,43.10
2018-07-30T03:15:15.602Z,43.10
2018-07-30T03:20:19.008Z,43.10
2018-07-30T03:25:22.387Z,43.20
2018-07-30T03:30:25.861Z,43.20
2018-07-30T03:35:29.488Z,43.40
2018-07-30T03:40:32.856Z,43.40
2018-07-30T03:45:36.232Z,43.50
2018-07-30T03:50:39.631Z,43.60
2018-07-30T03:55:43.000Z,43.70
2018-07-30T04:00:46.454Z,43.60
2018-07-30T04:05:49.842Z,43.80
2018-07-30T04:10:53.305Z,43.80
2018-07-30T04:15:56.749Z,44.00
2018-07-30T04:21:00.153Z,44.10
2018-07-30T04:26:03.511Z,44.10
2018-07-30T04:31:06.950Z,44.30
2018-07-30T04:36:10.400Z,44.30
2018-07-30T04:41:13.756Z,44.70
2018-07-30T04:46:17.125Z,44.80
2018-07-30T04:51:21.317Z,45.00
2018-07-30T04:56:24.736Z,45.00
2018-07-30T05:01:28.121Z,45.50
2018-07-30T05:06:31.481Z,45.60
2018-07-30T05:11:35.606Z,45.60
2018-07-30T05:16:38.980Z,45.90
2018-07-30T05:21:42.344Z,45.70
2018-07-30T05:26:45.720Z,46.00
2018-07-30T05:31:49.188Z,46.40
2018-07-30T05:36:52.594Z,46.40
2018-07-30T05:41:55.955Z,46.50
2018-07-30T05:46:59.308Z,46.80
2018-07-30T05:52:02.696Z,47.00
2018-07-30T05:57:06.436Z,47.10
2018-07-30T06:02:09.813Z,47.30
2018-07-30T06:07:13.440Z,47.40
2018-07-30T06:12:16.888Z,47.20
2018-07-30T06:17:20.248Z,46.90
2018-07-30T06:22:24.684Z,47.00
2018-07-30T06:27:28.088Z,47.10
2018-07-30T06:32:31.478Z,47.20
2018-07-30T06:37:34.980Z,47.00
2018-07-30T06:42:38.405Z,47.10
2018-07-30T06:47:41.782Z,46.80
2018-07-30T06:52:45.152Z,46.80
2018-07-30T06:57:48.508Z,46.40
2018-07-30T07:02:51.890Z,46.00
2018-07-30T07:07:55.279Z,46.10
2018-07-30T07:12:58.657Z,45.80
2018-07-30T07:18:02.016Z,45.60
2018-07-30T07:28:08.635Z,45.70
2018-07-30T07:33:11.994Z,45.50
2018-07-30T07:38:15.384Z,44.80
2018-07-30T07:43:18.775Z,45.10
2018-07-30T07:48:22.140Z,44.40
2018-07-30T07:53:25.577Z,44.20
2018-07-30T07:58:29.024Z,44.40
2018-07-30T08:03:32.406Z,44.00
2018-07-30T08:08:35.826Z,43.40
2018-07-30T08:13:39.162Z,43.40
2018-07-30T08:18:42.538Z,43.10
2018-07-30T08:23:45.963Z,42.70
2018-07-30T08:28:49.336Z,42.20
2018-07-30T08:33:52.805Z,42.60
2018-07-30T08:38:56.172Z,41.90
2018-07-30T08:43:59.638Z,41.20
2018-07-30T08:49:03.023Z,41.50
2018-07-30T08:54:06.464Z,41.10
2018-07-30T08:59:09.873Z,40.50
2018-07-30T09:04:13.266Z,40.30
2018-07-30T09:09:16.717Z,40.10
2018-07-30T09:14:20.128Z,39.50
2018-07-30T09:19:23.578Z,38.90
2018-07-30T09:24:26.947Z,39.00
2018-07-30T09:29:30.468Z,37.90
2018-07-30T09:34:33.833Z,38.20
2018-07-30T09:39:37.301Z,37.40
2018-07-30T09:44:40.667Z,37.40
2018-07-30T09:49:44.018Z,37.20
2018-07-30T09:54:47.372Z,37.00
2018-07-30T09:59:50.725Z,36.40
2018-07-30T10:04:55.578Z,36.50
2018-07-30T10:09:59.096Z,36.10
2018-07-30T10:15:02.726Z,35.80
2018-07-30T10:20:06.420Z,35.60
2018-07-30T10:25:09.907Z,35.50
2018-07-30T10:30:14.450Z,35.30
2018-07-30T10:35:17.857Z,35.40
2018-07-30T10:40:21.204Z,34.50
2018-07-30T10:45:24.870Z,34.30
2018-07-30T10:50:28.338Z,33.90
2018-07-30T10:55:31.768Z,34.80
2018-07-30T11:00:35.223Z,33.90
2018-07-30T11:05:38.661Z,32.70
2018-07-30T11:10:42.064Z,32.90
2018-07-30T11:15:45.480Z,32.80
2018-07-30T11:20:48.900Z,32.10
2018-07-30T11:30:55.376Z,30.60
2018-07-30T11:35:58.788Z,30.80
2018-07-30T11:41:02.289Z,31.00
2018-07-30T11:46:05.732Z,31.30
2018-07-30T11:51:09.117Z,30.80
2018-07-30T11:56:12.545Z,30.90
2018-07-30T12:01:15.993Z,30.60
2018-07-30T12:06:19.388Z,31.00
2018-07-30T12:11:22.787Z,31.60
2018-07-30T12:16:26.166Z,31.00
2018-07-30T12:21:29.568Z,30.60
2018-07-30T12:26:33.021Z,30.60
2018-07-30T12:31:36.430Z,30.40
2018-07-30T12:36:39.793Z,30.20
2018-07-30T12:41:43.218Z,30.40
2018-07-30T12:51:49.729Z,30.40
2018-07-30T12:56:53.186Z,30.40
2018-07-30T13:01:56.573Z,30.40
2018-07-30T13:07:00.044Z,29.80
2018-07-30T13:12:03.527Z,29.80
2018-07-30T13:17:06.999Z,29.60
2018-07-30T13:22:10.468Z,29.40
2018-07-30T13:27:13.929Z,29.50
2018-07-30T13:32:17.308Z,29.20
2018-07-30T13:37:20.785Z,28.80
2018-07-30T13:42:24.249Z,28.60
2018-07-30T13:47:27.666Z,28.40
2018-07-30T13:52:31.137Z,28.40
2018-07-30T13:57:34.550Z,28.30
2018-07-30T14:02:37.961Z,28.60
2018-07-30T14:07:41.473Z,28.80
2018-07-30T14:12:45.000Z,28.80
2018-07-30T14:17:48.424Z,28.70
2018-07-30T14:22:51.881Z,28.60
2018-07-30T14:27:55.318Z,28.20
2018-07-30T14:32:58.807Z,28.10
2018-07-30T14:38:02.308Z,28.10
2018-07-30T14:43:05.765Z,28.00
2018-07-30T14:48:09.178Z,27.60
2018-07-30T14:53:12.602Z,27.70
2018-07-30T14:58:16.069Z,27.80
2018-07-30T15:03:19.485Z,27.50
2018-07-30T15:08:22.908Z,27.50
2018-07-30T15:13:26.385Z,27.60
2018-07-30T15:18:29.849Z,28.00
2018-07-30T15:23:33.257Z,28.00
2018-07-30T15:28:36.717Z,27.90
2018-07-30T15:48:49.523Z,28.10
2018-07-30T15:53:53.043Z,28.00
2018-07-30T15:58:56.460Z,27.90
2018-07-30T16:03:59.977Z,28.00
2018-07-30T16:09:08.304Z,27.90
2018-07-30T16:14:11.713Z,27.90
2018-07-30T16:19:15.123Z,28.10
2018-07-30T16:24:18.614Z,27.90
2018-07-30T16:29:22.033Z,28.00
2018-07-30T16:34:25.484Z,28.10
2018-07-30T16:39:29.182Z,28.20
2018-07-30T16:44:45.987Z,28.70
2018-07-30T16:49:49.447Z,28.30
2018-07-30T16:54:52.888Z,28.30
2018-07-30T16:59:56.320Z,28.10
2018-07-30T17:04:59.788Z,27.90
2018-07-30T17:10:03.253Z,27.90
2018-07-30T17:15:07.083Z,27.60
2018-07-30T17:20:12.637Z,28.00
2018-07-30T17:25:16.079Z,27.40
2018-07-30T17:30:20.496Z,27.50
2018-07-30T17:35:23.932Z,27.60
2018-07-30T17:40:27.381Z,27.60
2018-07-30T17:45:30.784Z,27.80
2018-07-30T17:50:34.192Z,27.80
2018-07-30T17:55:37.582Z,28.00
2018-07-30T18:00:40.981Z,28.10
2018-07-30T18:05:44.423Z,27.90
2018-07-30T18:10:47.812Z,28.00
2018-07-30T18:15:51.193Z,28.30
2018-07-30T18:20:54.548Z,28.30
2018-07-30T18:25:57.945Z,28.80
2018-07-30T18:31:01.436Z,28.70
2018-07-30T18:36:04.841Z,29.00
2018-07-30T18:41:08.236Z,28.80
2018-07-30T18:46:11.678Z,29.10
2018-07-30T18:51:15.065Z,29.20
2018-07-30T18:56:18.444Z,29.30
2018-07-30T19:01:23.901Z,29.70
2018-07-30T19:06:27.269Z,29.80
2018-07-30T19:11:30.706Z,29.50
2018-07-30T19:16:34.090Z,29.80
2018-07-30T19:21:37.464Z,29.80
2018-07-30T19:26:40.881Z,30.00
2018-07-30T19:31:47.752Z,30.20
2018-07-30T19:36:51.150Z,30.00
2018-07-30T19:41:54.544Z,30.10
2018-07-30T19:47:01.170Z,30.40
2018-07-30T19:52:04.534Z,30.50
2018-07-30T19:57:07.930Z,30.70
2018-07-30T20:02:11.982Z,30.40
2018-07-30T20:07:15.338Z,30.40
2018-07-30T20:12:18.783Z,31.10
2018-07-30T20:17:22.068Z,31.30
2018-07-30T20:22:25.521Z,31.60
2018-07-30T20:27:28.873Z,31.50
2018-07-30T20:32:32.230Z,31.50
2018-07-30T20:37:35.639Z,31.50
2018-07-30T20:42:39.050Z,31.90
2018-07-30T20:47:42.402Z,32.10
2018-07-30T20:52:45.764Z,32.60
2018-07-30T20:57:49.266Z,32.00
2018-07-30T21:02:52.642Z,32.40
2018-07-30T21:07:56.129Z,32.50
2018-07-30T21:12:59.597Z,32.80
2018-07-30T21:18:03.912Z,32.80
2018-07-30T21:23:07.289Z,33.10
2018-07-30T21:33:15.833Z,33.20
2018-07-30T21:38:19.214Z,33.30
2018-07-30T21:43:22.617Z,33.50
2018-07-30T21:48:26.071Z,33.80
2018-07-30T21:53:29.654Z,34.00
2018-07-30T21:58:33.104Z,34.00
2018-07-30T22:03:36.493Z,34.20
2018-07-30T22:08:39.890Z,34.40
2018-07-30T22:13:43.278Z,34.00
2018-07-30T22:18:46.726Z,34.10
2018-07-30T22:23:50.117Z,34.50
2018-07-30T22:28:53.647Z,34.60
2018-07-30T22:33:57.245Z,35.00
2018-07-30T22:39:00.690Z,35.20
2018-07-30T22:44:04.090Z,35.40
2018-07-30T22:49:07.474Z,35.40
2018-07-30T22:54:10.831Z,35.50
2018-07-30T22:59:14.246Z,35.30
2018-07-30T23:04:17.635Z,35.20
2018-07-30T23:09:21.002Z,35.60
2018-07-30T23:14:24.355Z,35.70
2018-07-30T23:24:30.805Z,36.20
2018-07-30T23:29:34.171Z,36.40
2018-07-30T23:34:37.654Z,36.40
2018-07-30T23:39:41.026Z,36.60
2018-07-30T23:44:44.456Z,36.80
2018-07-30T23:49:47.823Z,37.00
2018-07-30T23:54:51.183Z,37.10
2018-07-30T23:59:54.545Z,36.70
